Time;durP1;ratioP1;P1;durP2;ratioP2;P2;SDS_P1;SDS_P2;PMS_P1;PMS_P2;Temp;Humidity;BMP_temperature;BMP_pressure;BME280_temperature;BME280_humidity;BME280_pressure;Samples;Min_cycle;Max_cycle;Signal;HPM_P1;HPM_P2
2022/11/23 00:00:02;;;;;;;32.13;11.40;;;;;;;;;;5010644;28;20057;-90
2022/11/23 00:02:32;;;;;;;33.63;13.45;;;;;;;;;;5010839;28;20132;-89
2022/11/23 00:05:00;;;;;;;28.05;12.73;;;;;;;;;;5012991;28;20073;-90
2022/11/23 00:07:28;;;;;;;31.52;12.00;;;;;;;;;;4993213;28;20121;-90
2022/11/23 00:09:56;;;;;;;30.33;12.57;;;;;;;;;;4993425;28;20412;-90
2022/11/23 00:12:24;;;;;;;29.70;11.60;;;;;;;;;;4992010;28;20050;-90
2022/11/23 00:14:51;;;;;;;33.88;13.18;;;;;;;;;;5012729;28;20046;-90
2022/11/23 00:17:19;;;;;;;21.30;7.72;;;;;;;;;;5025538;28;20538;-89
2022/11/23 00:19:47;;;;;;;28.88;12.55;;;;;;;;;;5008427;28;20050;-90
2022/11/23 00:22:16;;;;;;;28.60;12.25;;;;;;;;;;4981464;28;20152;-90
2022/11/23 00:24:44;;;;;;;28.42;12.77;;;;;;;;;;4996477;28;20063;-91
2022/11/23 00:27:36;;;;;;;25.42;11.82;;;;;;;;;;5015877;28;20104;-90
2022/11/23 00:30:10;;;;;;;34.65;12.27;;;;;;;;;;5012535;28;20050;-90
2022/11/23 00:32:38;;;;;;;28.00;11.48;;;;;;;;;;5015235;28;20050;-91
2022/11/23 00:35:06;;;;;;;29.00;11.75;;;;;;;;;;4997919;28;20372;-91
2022/11/23 00:37:34;;;;;;;35.67;12.57;;;;;;;;;;4981491;28;20148;-91
2022/11/23 00:40:02;;;;;;;31.17;12.27;;;;;;;;;;4997567;28;20049;-91
2022/11/23 00:42:30;;;;;;;27.23;10.68;;;;;;;;;;5012312;28;20512;-91
2022/11/23 00:45:04;;;;;;;27.05;10.68;;;;;;;;;;4999248;28;20064;-92
2022/11/23 00:47:32;;;;;;;33.95;13.18;;;;;;;;;;4997360;28;20054;-91
2022/11/23 00:50:01;;;;;;;34.65;11.93;;;;;;;;;;5016132;28;20050;-91
2022/11/23 00:52:30;;;;;;;31.42;12.10;;;;;;;;;;4982810;28;20097;-91
2022/11/23 00:55:04;;;;;;;29.13;13.07;;;;;;;;;;5015539;28;20041;-91
2022/11/23 00:57:33;;;;;;;27.33;11.55;;;;;;;;;;4983241;28;20050;-91
2022/11/23 01:00:00;;;;;;;31.38;12.43;;;;;;;;;;4998692;28;20061;-91
2022/11/23 01:02:35;;;;;;;29.02;11.45;;;;;;;;;;4997704;28;20399;-90
2022/11/23 01:05:02;;;;;;;27.63;12.55;;;;;;;;;;5013696;28;20050;-91
2022/11/23 01:07:40;;;;;;;32.70;11.13;;;;;;;;;;5013452;28;20045;-91
2022/11/23 01:10:08;;;;;;;29.58;11.90;;;;;;;;;;5009195;28;20431;-92
2022/11/23 01:12:36;;;;;;;27.52;11.65;;;;;;;;;;4989351;28;20136;-91
2022/11/23 01:15:06;;;;;;;29.73;11.80;;;;;;;;;;4976488;28;20054;-91
2022/11/23 01:17:40;;;;;;;31.45;11.55;;;;;;;;;;4992568;28;20054;-91
2022/11/23 01:20:12;;;;;;;37.58;12.70;;;;;;;;;;4991887;28;20050;-90
2022/11/23 01:22:40;;;;;;;26.63;10.60;;;;;;;;;;4981030;28;20073;-91
2022/11/23 01:25:08;;;;;;;38.00;13.25;;;;;;;;;;5013163;28;20516;-91
2022/11/23 01:27:42;;;;;;;27.08;11.23;;;;;;;;;;4979116;28;20085;-90
2022/11/23 01:30:10;;;;;;;28.52;11.80;;;;;;;;;;5011776;28;20049;-90
2022/11/23 01:32:44;;;;;;;28.17;10.82;;;;;;;;;;5011166;28;20380;-90
2022/11/23 01:35:12;;;;;;;23.85;10.57;;;;;;;;;;4983920;28;20072;-90
2022/11/23 01:37:39;;;;;;;27.27;11.73;;;;;;;;;;5010293;28;20050;-90
2022/11/23 01:40:43;;;;;;;27.40;11.57;;;;;;;;;;5021216;28;20045;-90
2022/11/23 01:43:16;;;;;;;25.85;10.15;;;;;;;;;;4994748;28;20053;-90
2022/11/23 01:46:10;;;;;;;26.98;10.93;;;;;;;;;;4993867;28;20408;-90
2022/11/23 01:48:41;;;;;;;29.42;12.73;;;;;;;;;;5006778;28;20144;-91
2022/11/23 01:51:14;;;;;;;35.17;12.38;;;;;;;;;;5005934;28;20065;-91
2022/11/23 01:53:44;;;;;;;34.53;11.57;;;;;;;;;;4992227;28;20412;-91
2022/11/23 01:56:23;;;;;;;35.25;11.10;;;;;;;;;;5008330;28;20042;-91
2022/11/23 01:58:55;;;;;;;25.70;11.32;;;;;;;;;;5006359;28;20049;-90
2022/11/23 02:01:46;;;;;;;26.77;11.05;;;;;;;;;;5010302;28;20053;-90
2022/11/23 02:04:30;;;;;;;31.05;11.50;;;;;;;;;;5010374;28;20511;-90
2022/11/23 02:07:00;;;;;;;30.52;11.30;;;;;;;;;;5009901;28;20056;-91
2022/11/23 02:09:31;;;;;;;34.92;12.00;;;;;;;;;;4994142;28;20112;-90
2022/11/23 02:12:24;;;;;;;24.23;10.52;;;;;;;;;;4991435;28;20503;-90
2022/11/23 02:14:52;;;;;;;27.75;11.43;;;;;;;;;;4993884;28;20053;-90
2022/11/23 02:17:20;;;;;;;25.40;10.25;;;;;;;;;;4976400;28;20056;-90
2022/11/23 02:20:03;;;;;;;25.73;12.32;;;;;;;;;;4993744;28;20050;-90
2022/11/23 02:22:45;;;;;;;33.03;12.27;;;;;;;;;;5003843;28;20508;-90
2022/11/23 02:25:21;;;;;;;25.67;10.32;;;;;;;;;;4999483;28;20546;-90
2022/11/23 02:27:50;;;;;;;25.85;10.30;;;;;;;;;;5009692;28;20504;-90
2022/11/23 02:30:18;;;;;;;25.15;9.98;;;;;;;;;;4977638;28;20081;-91
2022/11/23 02:32:56;;;;;;;30.48;10.93;;;;;;;;;;5010545;28;20069;-90
2022/11/23 02:35:24;;;;;;;26.92;10.77;;;;;;;;;;4994468;28;20049;-90
2022/11/23 02:37:52;;;;;;;31.02;11.25;;;;;;;;;;5006888;28;20070;-91
2022/11/23 02:40:26;;;;;;;27.55;11.00;;;;;;;;;;5012691;28;20486;-90
2022/11/23 02:42:54;;;;;;;28.88;11.63;;;;;;;;;;4994728;28;20057;-90
2022/11/23 02:46:12;;;;;;;27.55;11.80;;;;;;;;;;5011114;28;20088;-90
2022/11/23 02:48:53;;;;;;;36.90;10.77;;;;;;;;;;4993412;28;20046;-90
2022/11/23 02:51:20;;;;;;;27.98;11.18;;;;;;;;;;5010086;28;20084;-90
2022/11/23 02:53:47;;;;;;;26.63;10.75;;;;;;;;;;5025447;28;20054;-90
2022/11/23 02:56:16;;;;;;;25.23;10.77;;;;;;;;;;5004047;28;20066;-90
2022/11/23 02:58:48;;;;;;;26.05;10.20;;;;;;;;;;4990349;28;20105;-90
2022/11/23 03:01:16;;;;;;;27.67;11.98;;;;;;;;;;4990308;28;20061;-90
2022/11/23 03:03:46;;;;;;;30.17;11.23;;;;;;;;;;5014350;28;20042;-90
2022/11/23 03:06:14;;;;;;;25.33;9.07;;;;;;;;;;4996064;28;20049;-90
2022/11/23 03:09:11;;;;;;;27.88;10.73;;;;;;;;;;5009064;28;20060;-90
2022/11/23 03:11:38;;;;;;;24.80;11.57;;;;;;;;;;4989779;28;20129;-90
2022/11/23 03:14:06;;;;;;;25.35;11.30;;;;;;;;;;5014366;28;20511;-90
2022/11/23 03:16:46;;;;;;;29.98;10.75;;;;;;;;;;5011744;28;20105;-90
2022/11/23 03:19:20;;;;;;;25.52;10.52;;;;;;;;;;4974635;28;20057;-90
2022/11/23 03:21:54;;;;;;;27.08;11.65;;;;;;;;;;4995556;28;20054;-89
2022/11/23 03:24:22;;;;;;;29.92;11.25;;;;;;;;;;4996572;28;20045;-90
2022/11/23 03:26:54;;;;;;;29.67;11.02;;;;;;;;;;5004806;28;20077;-89
2022/11/23 03:29:26;;;;;;;32.30;11.98;;;;;;;;;;5010690;28;20050;-90
2022/11/23 03:32:10;;;;;;;29.85;10.52;;;;;;;;;;5003365;28;20042;-90
2022/11/23 03:34:40;;;;;;;15.05;7.18;;;;;;;;;;4996658;28;20049;-89
2022/11/23 03:37:08;;;;;;;29.08;11.25;;;;;;;;;;4980593;28;20527;-90
2022/11/23 03:39:59;;;;;;;31.38;12.77;;;;;;;;;;5027923;28;20042;-90
2022/11/23 03:45:40;;;;;;;28.98;11.35;;;;;;;;;;5012534;28;20499;-90
2022/11/23 03:48:08;;;;;;;30.58;10.77;;;;;;;;;;4997803;28;20050;-90
2022/11/23 03:50:46;;;;;;;24.05;10.38;;;;;;;;;;4979175;28;20060;-90
2022/11/23 03:53:14;;;;;;;23.98;10.88;;;;;;;;;;4996382;28;20149;-90
2022/11/23 03:55:44;;;;;;;26.98;10.48;;;;;;;;;;4996011;28;20140;-90
2022/11/23 03:58:18;;;;;;;27.67;10.88;;;;;;;;;;4978342;28;20145;-90
2022/11/23 04:00:50;;;;;;;25.15;11.18;;;;;;;;;;5012242;28;20185;-90
2022/11/23 04:03:18;;;;;;;24.73;11.05;;;;;;;;;;4995728;28;20531;-90
2022/11/23 04:06:10;;;;;;;28.98;12.43;;;;;;;;;;5012979;28;20117;-91
2022/11/23 04:08:42;;;;;;;26.90;9.80;;;;;;;;;;5012552;28;20627;-90
2022/11/23 04:11:15;;;;;;;26.20;10.45;;;;;;;;;;5011882;28;20153;-91
2022/11/23 04:13:50;;;;;;;29.17;12.68;;;;;;;;;;4994928;28;20050;-90
2022/11/23 04:16:18;;;;;;;28.52;10.43;;;;;;;;;;5011205;28;20200;-90
2022/11/23 04:18:46;;;;;;;28.92;11.00;;;;;;;;;;4995995;28;20070;-90
2022/11/23 04:21:14;;;;;;;28.58;10.43;;;;;;;;;;4994868;28;20117;-90
2022/11/23 04:23:42;;;;;;;25.55;10.30;;;;;;;;;;4978819;28;20523;-90
2022/11/23 04:26:12;;;;;;;27.05;10.65;;;;;;;;;;4995065;28;20046;-91
2022/11/23 04:28:41;;;;;;;20.30;9.55;;;;;;;;;;4980236;28;20054;-90
2022/11/23 04:31:34;;;;;;;25.88;10.65;;;;;;;;;;4995028;28;20050;-91
2022/11/23 04:34:12;;;;;;;29.65;11.02;;;;;;;;;;5010467;28;20172;-90
2022/11/23 04:36:39;;;;;;;25.80;10.63;;;;;;;;;;4980486;28;20046;-90
2022/11/23 04:39:11;;;;;;;21.15;10.25;;;;;;;;;;4993845;28;20503;-90
2022/11/23 04:42:04;;;;;;;22.83;10.13;;;;;;;;;;5023792;28;20049;-90
2022/11/23 04:44:33;;;;;;;21.30;9.57;;;;;;;;;;4995113;28;20049;-90
2022/11/23 04:47:04;;;;;;;22.67;10.38;;;;;;;;;;5009753;28;20050;-90
2022/11/23 04:50:02;;;;;;;24.00;10.35;;;;;;;;;;5013012;28;20057;-90
2022/11/23 04:52:30;;;;;;;23.50;10.10;;;;;;;;;;4984036;28;20507;-90
2022/11/23 04:54:58;;;;;;;24.45;8.85;;;;;;;;;;4986631;28;20050;-90
2022/11/23 04:57:32;;;;;;;26.60;10.35;;;;;;;;;;4995971;28;20137;-90
2022/11/23 05:00:00;;;;;;;23.92;10.25;;;;;;;;;;4979640;28;20049;-90
2022/11/23 05:02:29;;;;;;;25.55;9.27;;;;;;;;;;4989255;28;20054;-91
2022/11/23 05:05:30;;;;;;;25.52;10.15;;;;;;;;;;4997087;28;20057;-90
2022/11/23 05:07:58;;;;;;;19.83;8.35;;;;;;;;;;4993591;28;20068;-90
2022/11/23 05:10:38;;;;;;;21.73;9.43;;;;;;;;;;4990019;28;20507;-90
2022/11/23 05:13:06;;;;;;;22.85;10.02;;;;;;;;;;4979952;28;20053;-91
2022/11/23 05:15:34;;;;;;;24.85;9.52;;;;;;;;;;5027031;28;20052;-90
2022/11/23 05:18:06;;;;;;;23.05;9.70;;;;;;;;;;4978558;28;20057;-91
2022/11/23 05:20:36;;;;;;;27.73;9.38;;;;;;;;;;4993747;28;20054;-90
2022/11/23 05:23:04;;;;;;;25.15;8.32;;;;;;;;;;5003964;28;20448;-90
2022/11/23 05:25:41;;;;;;;21.40;9.60;;;;;;;;;;4994078;28;20120;-90
2022/11/23 05:28:15;;;;;;;26.05;11.07;;;;;;;;;;5005648;28;20046;-91
2022/11/23 05:31:04;;;;;;;23.10;10.25;;;;;;;;;;4992009;28;20046;-90
2022/11/23 05:33:32;;;;;;;27.08;10.15;;;;;;;;;;4995293;28;20080;-91
2022/11/23 05:36:00;;;;;;;24.42;9.50;;;;;;;;;;4993132;28;20045;-90
2022/11/23 05:38:52;;;;;;;22.35;10.32;;;;;;;;;;5011427;28;20105;-90
2022/11/23 05:41:28;;;;;;;19.48;8.95;;;;;;;;;;4992575;28;20061;-90
2022/11/23 05:44:00;;;;;;;25.13;9.50;;;;;;;;;;5007909;28;20061;-90
2022/11/23 05:46:32;;;;;;;17.55;8.23;;;;;;;;;;5004989;28;20516;-90
2022/11/23 05:49:00;;;;;;;14.07;6.65;;;;;;;;;;5002417;28;20080;-90
2022/11/23 05:51:32;;;;;;;21.00;8.95;;;;;;;;;;4992984;28;20085;-91
2022/11/23 05:54:01;;;;;;;19.92;8.10;;;;;;;;;;4995723;28;20499;-90
2022/11/23 05:59:49;;;;;;;23.65;9.65;;;;;;;;;;4993411;28;20064;-89
2022/11/23 06:02:20;;;;;;;16.25;7.07;;;;;;;;;;4999942;28;20057;-90
2022/11/23 06:04:52;;;;;;;21.40;8.80;;;;;;;;;;4975487;28;20149;-89
2022/11/23 06:07:26;;;;;;;20.90;8.45;;;;;;;;;;4989157;28;20546;-89
2022/11/23 06:10:05;;;;;;;18.35;8.10;;;;;;;;;;4977613;28;20054;-90
2022/11/23 06:12:40;;;;;;;19.92;8.85;;;;;;;;;;4980517;28;20054;-90
2022/11/23 06:15:12;;;;;;;21.38;9.23;;;;;;;;;;4994546;28;20057;-90
2022/11/23 06:17:40;;;;;;;24.02;10.23;;;;;;;;;;4992392;28;20607;-90
2022/11/23 06:20:12;;;;;;;23.92;9.02;;;;;;;;;;4977674;28;20132;-91
2022/11/23 06:22:51;;;;;;;21.58;9.07;;;;;;;;;;4992374;28;20045;-90
2022/11/23 06:25:20;;;;;;;20.38;9.20;;;;;;;;;;4988139;28;20128;-90
2022/11/23 06:28:12;;;;;;;23.90;10.00;;;;;;;;;;5008064;28;20054;-90
2022/11/23 06:31:11;;;;;;;18.52;8.70;;;;;;;;;;5010514;28;20522;-91
2022/11/23 06:33:40;;;;;;;20.38;9.30;;;;;;;;;;4991894;28;20057;-90
2022/11/23 06:36:09;;;;;;;22.30;8.52;;;;;;;;;;5007554;28;20057;-91
2022/11/23 06:38:44;;;;;;;18.90;8.75;;;;;;;;;;4991253;28;20057;-90
2022/11/23 06:41:36;;;;;;;18.77;9.27;;;;;;;;;;5026188;28;20053;-90
2022/11/23 06:44:04;;;;;;;26.80;9.68;;;;;;;;;;5008736;28;20133;-89
2022/11/23 06:46:45;;;;;;;20.20;9.02;;;;;;;;;;4961284;28;20501;-90
2022/11/23 06:49:12;;;;;;;23.83;9.60;;;;;;;;;;4979034;28;20084;-89
2022/11/23 06:51:42;;;;;;;17.98;9.18;;;;;;;;;;4978392;28;20081;-90
2022/11/23 06:54:14;;;;;;;22.45;10.15;;;;;;;;;;4993387;28;20042;-89
2022/11/23 06:56:42;;;;;;;23.75;9.25;;;;;;;;;;4992908;28;20046;-89
2022/11/23 06:59:10;;;;;;;19.52;8.90;;;;;;;;;;4993526;28;20050;-89
2022/11/23 07:01:38;;;;;;;22.13;9.35;;;;;;;;;;5025574;28;20054;-90
2022/11/23 07:04:12;;;;;;;22.50;9.35;;;;;;;;;;4974676;28;20046;-89
2022/11/23 07:07:09;;;;;;;20.48;8.55;;;;;;;;;;5009561;28;20116;-89
2022/11/23 07:09:48;;;;;;;18.27;8.70;;;;;;;;;;4987589;28;20057;-89
2022/11/23 07:12:32;;;;;;;23.25;8.38;;;;;;;;;;4993246;28;21367;-90
2022/11/23 07:15:00;;;;;;;20.95;8.73;;;;;;;;;;4983717;28;20060;-89
2022/11/23 07:17:32;;;;;;;24.83;8.70;;;;;;;;;;5004323;28;20058;-89
2022/11/23 07:20:00;;;;;;;20.95;9.15;;;;;;;;;;4986999;28;20561;-89
2022/11/23 07:22:27;;;;;;;23.65;9.38;;;;;;;;;;4989766;28;20112;-89
2022/11/23 07:24:56;;;;;;;18.77;7.97;;;;;;;;;;4990884;28;20141;-89
2022/11/23 07:27:23;;;;;;;20.00;8.27;;;;;;;;;;5019180;28;20683;-88
2022/11/23 07:29:52;;;;;;;19.38;7.90;;;;;;;;;;4989765;28;20077;-89
2022/11/23 07:32:20;;;;;;;18.65;8.23;;;;;;;;;;4979623;28;20060;-88
2022/11/23 07:35:12;;;;;;;23.15;8.27;;;;;;;;;;4988860;28;20035;-88
2022/11/23 07:37:44;;;;;;;18.20;8.50;;;;;;;;;;4985661;28;20053;-89
2022/11/23 07:40:18;;;;;;;22.00;8.82;;;;;;;;;;4988375;28;20084;-88
2022/11/23 07:42:49;;;;;;;16.17;8.13;;;;;;;;;;4982833;28;20053;-89
2022/11/23 07:45:42;;;;;;;23.58;8.50;;;;;;;;;;5003589;28;20038;-88
2022/11/23 07:48:15;;;;;;;17.45;7.95;;;;;;;;;;4987634;28;20127;-89
2022/11/23 07:50:44;;;;;;;24.92;8.18;;;;;;;;;;4993481;28;20050;-89
2022/11/23 07:53:12;;;;;;;17.75;8.65;;;;;;;;;;4992406;28;20042;-89
2022/11/23 07:55:44;;;;;;;21.30;8.18;;;;;;;;;;5009209;28;20050;-89
2022/11/23 07:58:12;;;;;;;18.02;7.47;;;;;;;;;;4992919;28;20049;-92
2022/11/23 08:00:40;;;;;;;19.02;8.07;;;;;;;;;;4992427;28;20042;-90
2022/11/23 08:03:31;;;;;;;19.60;7.85;;;;;;;;;;5009808;28;20053;-90
2022/11/23 08:06:24;;;;;;;21.48;9.30;;;;;;;;;;4979649;28;20081;-90
2022/11/23 08:08:54;;;;;;;24.63;8.52;;;;;;;;;;5006863;28;20046;-90
2022/11/23 08:11:22;;;;;;;16.48;7.72;;;;;;;;;;5013281;28;20042;-90
2022/11/23 08:14:16;;;;;;;19.30;7.97;;;;;;;;;;4996083;28;20059;-90
2022/11/23 08:16:49;;;;;;;23.30;8.43;;;;;;;;;;5011702;28;20058;-90
2022/11/23 08:19:18;;;;;;;20.73;7.50;;;;;;;;;;4992974;28;20045;-90
2022/11/23 08:21:50;;;;;;;21.25;8.25;;;;;;;;;;5009085;28;20405;-89
2022/11/23 08:24:18;;;;;;;16.25;7.65;;;;;;;;;;4993758;28;20058;-90
2022/11/23 08:26:46;;;;;;;20.50;8.38;;;;;;;;;;4993299;28;20148;-90
2022/11/23 08:29:14;;;;;;;17.83;8.02;;;;;;;;;;4992451;28;20512;-90
2022/11/23 08:31:46;;;;;;;17.23;8.25;;;;;;;;;;4994971;28;20052;-90
2022/11/23 08:34:18;;;;;;;18.33;7.32;;;;;;;;;;5011724;28;20060;-90
2022/11/23 08:36:47;;;;;;;18.33;7.95;;;;;;;;;;4985355;28;20137;-89
2022/11/23 08:39:15;;;;;;;18.00;7.63;;;;;;;;;;4979055;28;20062;-89
2022/11/23 08:42:09;;;;;;;14.30;7.03;;;;;;;;;;5021282;28;20045;-89
2022/11/23 08:44:36;;;;;;;20.98;7.43;;;;;;;;;;4997799;28;20050;-89
2022/11/23 08:47:04;;;;;;;20.00;7.45;;;;;;;;;;5022522;28;20499;-88
2022/11/23 08:49:32;;;;;;;13.50;6.57;;;;;;;;;;4990227;28;20049;-89
2022/11/23 08:52:04;;;;;;;25.48;6.38;;;;;;;;;;5008761;28;20050;-88
2022/11/23 08:54:32;;;;;;;17.08;7.57;;;;;;;;;;4987977;28;20042;-88
2022/11/23 08:56:59;;;;;;;22.50;7.18;;;;;;;;;;5005356;28;20072;-89
2022/11/23 08:59:28;;;;;;;19.58;6.20;;;;;;;;;;5000865;28;20127;-88
2022/11/23 09:02:22;;;;;;;15.02;6.72;;;;;;;;;;5004949;28;20054;-88
2022/11/23 09:04:50;;;;;;;25.40;7.00;;;;;;;;;;5008367;28;20506;-88
2022/11/23 09:07:22;;;;;;;14.38;6.07;;;;;;;;;;5001314;28;20064;-88
2022/11/23 09:09:50;;;;;;;20.30;7.07;;;;;;;;;;5008311;28;20133;-88
2022/11/23 09:12:42;;;;;;;19.33;6.72;;;;;;;;;;4962334;28;20038;-88
2022/11/23 09:15:16;;;;;;;14.10;6.28;;;;;;;;;;5010140;28;20092;-89
2022/11/23 09:17:49;;;;;;;18.55;6.85;;;;;;;;;;4991992;28;20058;-89
2022/11/23 09:20:16;;;;;;;12.65;6.75;;;;;;;;;;4991338;28;20042;-88
2022/11/23 09:22:52;;;;;;;15.00;5.97;;;;;;;;;;4988094;28;20072;-88
2022/11/23 09:25:26;;;;;;;15.73;6.18;;;;;;;;;;4988970;28;20068;-88
2022/11/23 09:27:58;;;;;;;14.63;5.90;;;;;;;;;;5005878;28;20061;-88
2022/11/23 09:30:27;;;;;;;16.35;7.13;;;;;;;;;;4991695;28;20056;-88
2022/11/23 09:32:57;;;;;;;16.20;5.97;;;;;;;;;;4990117;28;20057;-89
2022/11/23 09:35:30;;;;;;;17.48;6.85;;;;;;;;;;5021710;28;20034;-89
2022/11/23 09:38:00;;;;;;;15.10;6.22;;;;;;;;;;5007972;28;20069;-90
2022/11/23 09:40:39;;;;;;;14.23;6.07;;;;;;;;;;5015313;28;20104;-90
2022/11/23 09:43:16;;;;;;;16.13;5.97;;;;;;;;;;4973617;28;20042;-89
2022/11/23 09:45:50;;;;;;;16.20;6.03;;;;;;;;;;5006572;28;20129;-89
2022/11/23 09:48:37;;;;;;;14.80;6.30;;;;;;;;;;5008120;28;20061;-90
2022/11/23 09:51:17;;;;;;;12.55;5.95;;;;;;;;;;5011773;28;20104;-89
2022/11/23 09:53:55;;;;;;;15.98;5.82;;;;;;;;;;5015005;28;20073;-91
2022/11/23 09:56:31;;;;;;;16.35;6.35;;;;;;;;;;5001704;28;20072;-91
2022/11/23 09:59:30;;;;;;;14.43;5.57;;;;;;;;;;5010705;28;20046;-91
2022/11/23 10:02:00;;;;;;;14.63;6.20;;;;;;;;;;4976245;28;20058;-90
2022/11/23 10:04:34;;;;;;;11.27;5.25;;;;;;;;;;5010679;28;20041;-89
2022/11/23 10:07:16;;;;;;;11.75;5.53;;;;;;;;;;5003349;28;20049;-89
2022/11/23 10:10:33;;;;;;;15.73;5.45;;;;;;;;;;5022272;28;20077;-90
2022/11/23 10:13:23;;;;;;;13.52;5.30;;;;;;;;;;4978019;28;20062;-91
2022/11/23 10:16:24;;;;;;;16.55;6.05;;;;;;;;;;4962338;28;20061;-90
2022/11/23 10:19:21;;;;;;;12.60;5.95;;;;;;;;;;5016471;28;20396;-90
2022/11/23 10:22:15;;;;;;;12.70;5.50;;;;;;;;;;5016708;28;20054;-90
2022/11/23 10:24:52;;;;;;;10.02;4.50;;;;;;;;;;4990101;28;20056;-90
2022/11/23 10:27:23;;;;;;;11.32;5.35;;;;;;;;;;5028212;28;20492;-89
2022/11/23 10:30:20;;;;;;;12.25;5.32;;;;;;;;;;5004502;28;20054;-89
2022/11/23 10:33:10;;;;;;;8.45;4.40;;;;;;;;;;5005394;28;20099;-88
2022/11/23 10:35:44;;;;;;;10.68;5.07;;;;;;;;;;5005287;28;20079;-89
2022/11/23 10:38:17;;;;;;;10.90;5.25;;;;;;;;;;4990479;28;20109;-89
2022/11/23 10:41:03;;;;;;;10.68;5.03;;;;;;;;;;4987707;28;20061;-89
2022/11/23 10:44:08;;;;;;;12.65;5.45;;;;;;;;;;4994133;28;20069;-89
2022/11/23 10:46:36;;;;;;;9.18;5.07;;;;;;;;;;5004669;28;20128;-89
2022/11/23 10:49:28;;;;;;;9.18;4.55;;;;;;;;;;4976032;28;20111;-89
2022/11/23 10:52:04;;;;;;;9.10;5.07;;;;;;;;;;4986489;28;20053;-89
2022/11/23 10:54:50;;;;;;;10.18;4.80;;;;;;;;;;5003018;28;20059;-89
2022/11/23 10:57:27;;;;;;;11.38;4.97;;;;;;;;;;5006718;28;20065;-90
2022/11/23 11:00:04;;;;;;;9.77;4.30;;;;;;;;;;5021895;28;20507;-89
2022/11/23 11:02:44;;;;;;;12.23;4.82;;;;;;;;;;5008468;28;20057;-89
2022/11/23 11:05:48;;;;;;;11.57;5.85;;;;;;;;;;5007794;28;20042;-89
2022/11/23 11:08:49;;;;;;;8.05;4.10;;;;;;;;;;4995470;28;20054;-89
2022/11/23 11:11:25;;;;;;;12.88;5.07;;;;;;;;;;5007394;28;20377;-89
2022/11/23 11:14:03;;;;;;;10.90;4.68;;;;;;;;;;5006864;28;20046;-89
2022/11/23 11:16:36;;;;;;;12.93;5.03;;;;;;;;;;4985335;28;20044;-88
2022/11/23 11:19:31;;;;;;;9.85;5.07;;;;;;;;;;4990774;28;20050;-89
2022/11/23 11:22:36;;;;;;;15.38;5.82;;;;;;;;;;4996648;28;20050;-89
2022/11/23 11:25:37;;;;;;;13.38;5.00;;;;;;;;;;5006736;28;20180;-89
2022/11/23 11:28:38;;;;;;;13.90;4.90;;;;;;;;;;4979688;28;20423;-89
2022/11/23 11:31:27;;;;;;;13.05;5.50;;;;;;;;;;4994379;28;20045;-89
2022/11/23 11:34:08;;;;;;;11.73;4.72;;;;;;;;;;5009156;28;20108;-89
2022/11/23 11:36:44;;;;;;;13.63;5.40;;;;;;;;;;5010387;28;20050;-88
2022/11/23 11:39:41;;;;;;;14.80;5.07;;;;;;;;;;5005011;28;20047;-87
2022/11/23 11:42:40;;;;;;;9.65;4.53;;;;;;;;;;5008247;28;20057;-88
2022/11/23 11:45:36;;;;;;;12.15;4.97;;;;;;;;;;5008562;28;20136;-90
2022/11/23 11:48:25;;;;;;;12.18;4.78;;;;;;;;;;4990379;28;20510;-90
2022/11/23 11:51:03;;;;;;;11.95;4.80;;;;;;;;;;5010060;28;20403;-90
2022/11/23 11:53:41;;;;;;;14.45;5.15;;;;;;;;;;5015239;28;20065;-90
2022/11/23 11:56:21;;;;;;;9.52;5.03;;;;;;;;;;5006461;28;20793;-90
2022/11/23 11:58:56;;;;;;;11.80;5.25;;;;;;;;;;5011026;28;20043;-90
2022/11/23 12:01:45;;;;;;;12.55;4.40;;;;;;;;;;4987808;28;20050;-90
2022/11/23 12:04:27;;;;;;;10.00;4.68;;;;;;;;;;4985087;28;20415;-89
2022/11/23 12:07:38;;;;;;;15.63;4.72;;;;;;;;;;5004906;28;20049;-90
2022/11/23 12:10:15;;;;;;;9.35;4.80;;;;;;;;;;4942808;29;20461;-90
2022/11/23 12:12:48;;;;;;;11.10;4.32;;;;;;;;;;4954119;28;20391;-89
2022/11/23 12:15:25;;;;;;;14.25;5.03;;;;;;;;;;4952344;28;20098;-90
2022/11/23 12:18:29;;;;;;;10.88;4.68;;;;;;;;;;4934060;28;20051;-89
2022/11/23 12:21:29;;;;;;;11.40;5.00;;;;;;;;;;4934201;28;20174;-90
2022/11/23 12:24:09;;;;;;;11.23;4.75;;;;;;;;;;4946071;28;20867;-89
2022/11/23 12:27:20;;;;;;;10.95;5.32;;;;;;;;;;4944948;28;20106;-89
2022/11/23 12:30:14;;;;;;;10.20;4.78;;;;;;;;;;4944003;28;20200;-89
2022/11/23 12:32:58;;;;;;;10.00;5.03;;;;;;;;;;4943029;28;20058;-89
2022/11/23 12:36:02;;;;;;;12.02;4.80;;;;;;;;;;4932942;28;20051;-89
2022/11/23 12:38:41;;;;;;;8.20;4.78;;;;;;;;;;4944543;28;20047;-89
2022/11/23 12:41:31;;;;;;;14.70;5.28;;;;;;;;;;4946439;28;20066;-89
2022/11/23 12:44:31;;;;;;;14.48;4.93;;;;;;;;;;4971460;28;20131;-89
2022/11/23 12:47:44;;;;;;;13.05;4.35;;;;;;;;;;5006326;28;20770;-89
2022/11/23 12:50:59;;;;;;;8.50;3.63;;;;;;;;;;5007711;28;20048;-89
2022/11/23 12:53:40;;;;;;;8.55;3.70;;;;;;;;;;5008025;28;20126;-90
2022/11/23 12:56:27;;;;;;;10.18;4.15;;;;;;;;;;5012613;28;20050;-91
2022/11/23 12:58:57;;;;;;;9.18;3.30;;;;;;;;;;5000496;28;20080;-91
2022/11/23 13:01:35;;;;;;;7.55;3.38;;;;;;;;;;4981168;28;20460;-90
2022/11/23 13:04:44;;;;;;;7.82;3.75;;;;;;;;;;4977132;28;20507;-90
2022/11/23 13:07:41;;;;;;;7.22;3.92;;;;;;;;;;5026117;28;20451;-90
2022/11/23 13:10:26;;;;;;;11.25;4.38;;;;;;;;;;5002646;28;20053;-90
2022/11/23 13:13:59;;;;;;;8.07;3.95;;;;;;;;;;4978507;28;20488;-90
2022/11/23 13:16:44;;;;;;;8.55;3.42;;;;;;;;;;5006998;28;20144;-89
2022/11/23 13:19:43;;;;;;;14.02;4.57;;;;;;;;;;4994792;28;20049;-90
2022/11/23 13:22:19;;;;;;;6.68;3.47;;;;;;;;;;4926860;29;20526;-89
2022/11/23 13:25:26;;;;;;;11.38;3.78;;;;;;;;;;4926513;29;20200;-90
2022/11/23 13:28:02;;;;;;;11.98;3.75;;;;;;;;;;4927145;29;20060;-89
2022/11/23 13:30:36;;;;;;;12.00;3.65;;;;;;;;;;4931595;29;20051;-89
2022/11/23 13:33:27;;;;;;;8.68;3.90;;;;;;;;;;4929574;29;20099;-88
2022/11/23 13:36:00;;;;;;;10.98;3.88;;;;;;;;;;4938395;29;20051;-91
2022/11/23 13:38:42;;;;;;;8.07;3.92;;;;;;;;;;4905212;29;20056;-90
2022/11/23 13:41:38;;;;;;;10.00;4.88;;;;;;;;;;4932940;29;20156;-91
2022/11/23 13:44:31;;;;;;;14.68;4.10;;;;;;;;;;4934450;29;20040;-89
2022/11/23 13:47:26;;;;;;;10.32;4.00;;;;;;;;;;4925572;29;20387;-90
2022/11/23 13:50:08;;;;;;;10.38;4.28;;;;;;;;;;4928471;29;20063;-90
2022/11/23 13:52:36;;;;;;;9.90;3.70;;;;;;;;;;4923895;29;20087;-90
2022/11/23 13:55:19;;;;;;;10.70;4.05;;;;;;;;;;4924867;29;20059;-90
2022/11/23 13:58:20;;;;;;;10.00;3.60;;;;;;;;;;4924569;28;20077;-89
2022/11/23 14:00:48;;;;;;;9.30;3.58;;;;;;;;;;5003033;28;20541;-90
2022/11/23 14:03:52;;;;;;;11.07;3.75;;;;;;;;;;5008477;28;20054;-90
2022/11/23 14:06:28;;;;;;;7.00;3.67;;;;;;;;;;5010429;28;20185;-90
2022/11/23 14:09:10;;;;;;;9.38;3.72;;;;;;;;;;5022352;28;20137;-90
2022/11/23 14:11:59;;;;;;;8.15;3.72;;;;;;;;;;5021261;28;20057;-89
2022/11/23 14:14:43;;;;;;;7.47;3.88;;;;;;;;;;5007653;28;20049;-89
2022/11/23 14:17:50;;;;;;;10.13;3.83;;;;;;;;;;5008677;28;20096;-89
2022/11/23 14:20:22;;;;;;;7.45;3.85;;;;;;;;;;4990586;28;20049;-89
2022/11/23 14:23:17;;;;;;;9.27;4.00;;;;;;;;;;4986237;28;20072;-89
2022/11/23 14:25:56;;;;;;;6.97;3.20;;;;;;;;;;4989632;28;20061;-90
2022/11/23 14:28:32;;;;;;;9.88;3.80;;;;;;;;;;4987622;28;20046;-89
2022/11/23 14:31:45;;;;;;;6.25;2.85;;;;;;;;;;4989358;28;20077;-92
2022/11/23 14:34:17;;;;;;;6.20;3.22;;;;;;;;;;4997654;28;20133;-91
2022/11/23 14:37:12;;;;;;;9.90;3.40;;;;;;;;;;5001594;28;20038;-90
2022/11/23 14:40:13;;;;;;;9.77;3.78;;;;;;;;;;5010241;28;20519;-90
2022/11/23 14:42:44;;;;;;;11.02;4.22;;;;;;;;;;5012127;28;20050;-90
2022/11/23 14:45:20;;;;;;;7.30;3.92;;;;;;;;;;4998105;28;20093;-91
2022/11/23 14:47:48;;;;;;;10.52;4.20;;;;;;;;;;4982745;28;20511;-90
2022/11/23 14:50:26;;;;;;;7.75;3.85;;;;;;;;;;4997817;28;20057;-90
2022/11/23 14:52:59;;;;;;;12.63;4.10;;;;;;;;;;4994157;28;20136;-91
2022/11/23 14:55:29;;;;;;;13.35;4.40;;;;;;;;;;4962605;28;20054;-90
2022/11/23 14:58:05;;;;;;;8.30;4.00;;;;;;;;;;5016374;28;20495;-91
2022/11/23 15:00:37;;;;;;;13.15;4.55;;;;;;;;;;5020058;28;20052;-91
2022/11/23 15:03:14;;;;;;;15.20;4.07;;;;;;;;;;5019892;28;20050;-90
2022/11/23 15:06:14;;;;;;;11.52;4.95;;;;;;;;;;5015051;28;20061;-90
2022/11/23 15:08:53;;;;;;;;;;;;;;;;;;5003659;28;20141;-90
2022/11/23 15:11:28;;;;;;;8.98;3.70;;;;;;;;;;5003804;28;19929;-91
2022/11/23 15:14:02;;;;;;;4.97;2.97;;;;;;;;;;5000858;28;20045;-90
2022/11/23 15:16:38;;;;;;;10.02;4.10;;;;;;;;;;5017837;28;20049;-89
2022/11/23 15:19:27;;;;;;;10.93;4.45;;;;;;;;;;5003744;28;20115;-90
2022/11/23 15:21:56;;;;;;;11.52;3.88;;;;;;;;;;4993064;28;20046;-90
2022/11/23 15:24:27;;;;;;;8.00;3.70;;;;;;;;;;4995653;28;20060;-90
2022/11/23 15:27:03;;;;;;;10.75;4.18;;;;;;;;;;5024601;28;20096;-90
2022/11/23 15:29:38;;;;;;;8.77;4.30;;;;;;;;;;5010489;28;20053;-89
2022/11/23 15:32:27;;;;;;;9.45;3.60;;;;;;;;;;5010384;28;20069;-89
2022/11/23 15:35:06;;;;;;;8.77;4.28;;;;;;;;;;5014290;28;20104;-89
2022/11/23 15:37:44;;;;;;;8.27;3.90;;;;;;;;;;5008993;28;20038;-90